Kimry, Russia
Current Conditions -  °F | °C
As of 10:00 AM on Friday 31 Oct 2014 (Local Time) from UUEE Reporting Station
Broken Clouds Broken Clouds  
Wind Chill: 30°   Ceiling: 900
Heat Index: 36°   Visibility: 4mi
Dew Point: 30°   Wind: 7mph
Humidity: 81%   Direction: 290°WNW
Pressure: 30.06"   Gusts: NA
Location:  56.87°N, 37.35°E
Report Text: UUEE 310700Z 29003MPS 6000 BKN009 02/M01 Q1018 7500006225190057 NOSIG
Loading
Personal Weather Stations






























Interactive Weather Map
Tropical Storm Tracking
New forecast layout! Learn more

10-Day Weather Forecast

Advertisements
Track Severe Weather on mobile